Terminal Aerodrome Forecast
Issued by NWS

Home | Current Version | Previous Version | Graphics & Text | Print | Product List | Glossary On
Versions: 1 2 3 4 5 6 7 8 9 10 11 12 13 14 15 16 17 18
000
FTUS43 KICT 141137
TAFCNU
TAF
KCNU 141137Z 1412/1512 01007KT 5SM BR OVC005
      TEMPO 1412/1416 3SM -FZDZ
     FM141600 01006KT P6SM SCT009 OVC015
     FM150000 03005KT 6SM -FZRA SCT009 OVC015
     FM150300 04005KT 3SM -FZRA SCT006 OVC009=

USA.gov is the U.S. government's official web portal to all federal, state and local government web resources and services.